Time;durP1;ratioP1;P1;durP2;ratioP2;P2;SDS_P1;SDS_P2;PMS_P1;PMS_P2;Temp;Humidity;BMP_temperature;BMP_pressure;BME280_temperature;BME280_humidity;BME280_pressure;Samples;Min_cycle;Max_cycle;Signal;HPM_P1;HPM_P2
2024/01/29 05:30:07;;;;;;;0.10;0.10;;;10.00;90.60;;;;;;6047379;23;20022;31
2024/01/29 05:32:32;;;;;;;0.10;0.10;;;10.00;90.50;;;;;;4960714;28;20692;-77
2024/01/29 05:35:00;;;;;;;0.10;0.10;;;10.00;90.60;;;;;;4938107;29;20032;-77
2024/01/29 05:37:25;;;;;;;0.00;0.00;;;10.10;90.50;;;;;;4933658;29;20111;-77
2024/01/29 05:39:51;;;;;;;0.10;0.10;;;10.00;90.60;;;;;;4938741;29;20067;-77
2024/01/29 05:42:17;;;;;;;0.10;0.10;;;10.00;90.60;;;;;;4938026;29;20031;-77
2024/01/29 05:44:42;;;;;;;0.10;0.10;;;10.10;90.50;;;;;;4937129;29;20044;-77
2024/01/29 05:47:08;;;;;;;0.10;0.10;;;10.00;90.50;;;;;;4952771;29;20494;-77
2024/01/29 05:49:33;;;;;;;0.10;0.10;;;10.00;90.50;;;;;;4925460;29;20463;-77
2024/01/29 05:51:59;;;;;;;0.10;0.10;;;9.90;90.40;;;;;;4938487;29;20614;-77
2024/01/29 05:54:25;;;;;;;0.10;0.10;;;9.90;90.50;;;;;;4968766;28;20039;-77
2024/01/29 05:56:51;;;;;;;0.10;0.10;;;9.90;90.40;;;;;;4938281;29;20059;-76
2024/01/29 05:59:17;;;;;;;0.10;0.10;;;9.90;90.40;;;;;;4938029;29;20036;-82
2024/01/29 06:01:46;;;;;;;0.10;0.10;;;9.80;90.30;;;;;;4951738;29;20030;-83
2024/01/29 06:04:45;;;;;;;0.10;0.10;;;9.80;90.40;;;;;;4969144;28;20023;-81
2024/01/29 06:07:12;;;;;;;0.10;0.10;;;9.80;90.20;;;;;;4937824;28;20056;-86
2024/01/29 06:09:44;;;;;;;0.10;0.10;;;9.80;90.10;;;;;;4952588;29;20044;-86
2024/01/29 06:12:09;;;;;;;0.10;0.10;;;9.70;90.00;;;;;;4938003;29;20028;-78
2024/01/29 06:14:35;;;;;;;0.10;0.10;;;9.70;90.10;;;;;;4920511;29;20087;-79
2024/01/29 06:17:00;;;;;;;0.10;0.10;;;9.60;89.90;;;;;;4927185;29;20020;-77
2024/01/29 06:19:26;;;;;;;0.10;0.10;;;9.60;90.10;;;;;;4969902;28;20040;-83
2024/01/29 06:21:52;;;;;;;0.10;0.10;;;9.60;90.00;;;;;;4938365;29;20444;-80
2024/01/29 06:24:17;;;;;;;0.10;0.10;;;9.50;90.00;;;;;;4939441;29;20032;-81
2024/01/29 06:26:43;;;;;;;0.10;0.10;;;9.50;90.10;;;;;;4940743;29;20027;-81
2024/01/29 06:29:09;;;;;;;0.10;0.10;;;9.50;90.00;;;;;;4942184;29;20028;-81
2024/01/29 06:31:39;;;;;;;0.10;0.10;;;9.40;90.10;;;;;;4941084;29;20617;-86
2024/01/29 06:34:05;;;;;;;0.10;0.10;;;9.40;89.90;;;;;;4955617;29;20440;-78
2024/01/29 06:36:31;;;;;;;0.10;0.10;;;9.40;89.90;;;;;;4941174;29;20032;-78
2024/01/29 06:38:58;;;;;;;0.20;0.20;;;9.40;90.00;;;;;;4966925;28;20039;-78
2024/01/29 06:41:25;;;;;;;0.10;0.10;;;9.40;90.00;;;;;;4951287;29;20036;-81
2024/01/29 06:43:52;;;;;;;0.10;0.10;;;9.50;90.00;;;;;;4956317;29;20034;-79
2024/01/29 06:46:18;;;;;;;0.10;0.10;;;9.40;89.80;;;;;;4941001;29;20034;-80
2024/01/29 06:48:44;;;;;;;0.10;0.10;;;9.40;89.80;;;;;;4972903;28;20054;-85
2024/01/29 06:51:10;;;;;;;0.10;0.10;;;9.40;89.90;;;;;;4956481;29;20047;-80
2024/01/29 06:53:36;;;;;;;0.15;0.15;;;9.40;89.80;;;;;;4941137;29;20448;-88
2024/01/29 06:56:05;;;;;;;0.10;0.10;;;9.30;89.70;;;;;;4941355;29;20030;-87
2024/01/29 06:58:37;;;;;;;0.10;0.10;;;9.20;89.80;;;;;;4936445;29;20110;-86
2024/01/29 07:01:04;;;;;;;0.10;0.10;;;9.20;89.90;;;;;;4954620;29;20107;-84
2024/01/29 07:03:30;;;;;;;0.10;0.10;;;9.20;90.00;;;;;;4928583;29;20019;-85
2024/01/29 07:05:57;;;;;;;0.10;0.10;;;9.20;90.10;;;;;;4940475;29;20031;-84
2024/01/29 07:08:23;;;;;;;0.10;0.10;;;9.20;90.20;;;;;;4965508;28;20115;-84
2024/01/29 07:10:49;;;;;;;0.10;0.10;;;9.10;90.10;;;;;;4946732;29;20035;-84
2024/01/29 07:13:14;;;;;;;0.20;0.20;;;9.10;90.10;;;;;;4949222;28;20050;-84
2024/01/29 07:15:42;;;;;;;0.10;0.10;;;9.20;90.30;;;;;;4950510;29;20027;-85
2024/01/29 07:18:07;;;;;;;0.10;0.10;;;9.10;90.20;;;;;;4929445;28;20036;-84
2024/01/29 07:20:41;;;;;;;0.10;0.10;;;9.10;90.30;;;;;;4921955;29;20032;-84
2024/01/29 07:23:07;;;;;;;0.10;0.10;;;9.10;90.20;;;;;;4934424;29;20027;-84
2024/01/29 07:25:34;;;;;;;0.10;0.10;;;9.10;90.30;;;;;;4941053;29;20392;-84
2024/01/29 07:28:02;;;;;;;0.10;0.10;;;9.10;90.30;;;;;;4943097;29;20042;-84
2024/01/29 07:30:28;;;;;;;0.10;0.10;;;9.10;90.30;;;;;;4964537;28;20068;-84
2024/01/29 07:32:53;;;;;;;0.10;0.10;;;9.10;90.20;;;;;;4934819;29;20039;-84
2024/01/29 07:35:19;;;;;;;0.10;0.10;;;9.10;90.00;;;;;;4933783;29;20119;-84
2024/01/29 07:37:44;;;;;;;0.10;0.10;;;9.00;90.00;;;;;;4938106;29;20031;-84
2024/01/29 07:40:10;;;;;;;0.10;0.10;;;9.00;90.00;;;;;;4948583;29;20555;-83
2024/01/29 07:42:37;;;;;;;0.10;0.10;;;8.90;90.10;;;;;;4938473;29;20099;-83
2024/01/29 07:45:03;;;;;;;0.10;0.10;;;8.90;90.10;;;;;;4939868;29;20027;-84
2024/01/29 07:47:29;;;;;;;0.10;0.10;;;8.80;90.20;;;;;;4951431;29;20028;-83
2024/01/29 07:49:55;;;;;;;0.10;0.10;;;8.80;90.20;;;;;;4940522;29;20543;-82
2024/01/29 07:52:20;;;;;;;0.10;0.10;;;8.80;90.20;;;;;;4934457;29;20036;-83
2024/01/29 07:54:46;;;;;;;0.10;0.10;;;8.80;90.30;;;;;;4935625;29;20047;-82
2024/01/29 07:57:12;;;;;;;0.10;0.10;;;8.80;90.30;;;;;;4966816;28;20175;-82
2024/01/29 07:59:39;;;;;;;0.15;0.15;;;8.80;90.30;;;;;;4921698;29;20016;-82
2024/01/29 08:02:05;;;;;;;0.10;0.10;;;8.80;90.30;;;;;;4923280;29;20028;-84
2024/01/29 08:04:32;;;;;;;0.13;0.13;;;8.80;90.20;;;;;;4930143;29;20032;-83
2024/01/29 08:06:58;;;;;;;0.10;0.10;;;8.80;90.20;;;;;;4925440;29;20023;-83
2024/01/29 08:09:26;;;;;;;0.10;0.10;;;8.80;90.10;;;;;;4939825;29;20029;-85
2024/01/29 08:11:52;;;;;;;0.10;0.10;;;8.80;90.00;;;;;;4961204;28;20183;-84
2024/01/29 08:14:18;;;;;;;0.10;0.10;;;8.80;90.00;;;;;;4969534;28;20036;-84
2024/01/29 08:16:43;;;;;;;0.10;0.10;;;8.90;89.90;;;;;;4937172;29;20043;-83
2024/01/29 08:19:09;;;;;;;0.10;0.10;;;8.80;89.70;;;;;;4937506;29;20039;-84
2024/01/29 08:21:35;;;;;;;0.10;0.10;;;8.80;89.90;;;;;;4937138;29;20035;-84
2024/01/29 08:24:04;;;;;;;0.10;0.10;;;8.80;89.80;;;;;;4936650;29;20031;-83
2024/01/29 08:26:30;;;;;;;0.10;0.10;;;8.90;89.70;;;;;;4921393;29;21563;-83
2024/01/29 08:28:56;;;;;;;0.10;0.10;;;8.90;89.50;;;;;;4935241;29;20079;-84
2024/01/29 08:31:23;;;;;;;0.10;0.10;;;8.90;89.50;;;;;;4948606;29;20055;-84
2024/01/29 08:33:49;;;;;;;0.10;0.10;;;8.90;89.40;;;;;;4943413;29;20452;-84
2024/01/29 08:36:15;;;;;;;0.10;0.10;;;9.00;89.30;;;;;;4927432;29;20039;-83
2024/01/29 08:38:42;;;;;;;0.20;0.20;;;9.00;89.10;;;;;;4962576;28;20035;-83
2024/01/29 08:41:07;;;;;;;0.20;0.20;;;9.10;89.00;;;;;;4948669;28;20032;-79
2024/01/29 08:43:33;;;;;;;0.10;0.10;;;9.10;88.80;;;;;;4968418;28;20055;-81
2024/01/29 08:46:00;;;;;;;0.20;0.20;;;9.20;88.80;;;;;;4942875;28;20055;-81
2024/01/29 08:48:25;;;;;;;0.20;0.20;;;9.30;88.50;;;;;;4946279;28;20031;-82
2024/01/29 08:50:51;;;;;;;0.10;0.10;;;9.30;88.30;;;;;;4967757;28;20115;-81
2024/01/29 08:53:17;;;;;;;0.10;0.10;;;9.30;88.10;;;;;;4946941;29;20039;-81
2024/01/29 08:55:42;;;;;;;0.10;0.10;;;9.30;88.10;;;;;;4942184;29;20024;-82
2024/01/29 08:58:08;;;;;;;0.20;0.20;;;9.40;88.10;;;;;;4944046;28;20082;-82
2024/01/29 09:00:33;;;;;;;0.20;0.20;;;9.40;88.00;;;;;;4942529;29;20155;-83
2024/01/29 09:02:59;;;;;;;0.20;0.20;;;9.50;87.90;;;;;;4937013;29;20039;-82
2024/01/29 09:05:25;;;;;;;0.20;0.20;;;9.60;87.80;;;;;;4936775;29;20024;-82
2024/01/29 09:07:51;;;;;;;0.10;0.10;;;9.60;87.40;;;;;;4933123;29;20531;-82
2024/01/29 09:10:17;;;;;;;0.20;0.20;;;9.60;87.30;;;;;;4933109;29;20060;-85
2024/01/29 09:12:43;;;;;;;0.20;0.20;;;9.70;87.40;;;;;;4964706;28;20035;-84
2024/01/29 09:15:10;;;;;;;0.20;0.20;;;9.70;87.10;;;;;;4947563;29;20052;-85
2024/01/29 09:17:36;;;;;;;0.20;0.20;;;9.80;87.00;;;;;;4951076;28;20077;-84
2024/01/29 09:20:06;;;;;;;0.40;0.40;;;9.80;86.90;;;;;;4957839;28;20042;-84
2024/01/29 09:22:32;;;;;;;0.30;0.30;;;9.90;86.60;;;;;;4948843;29;20028;-84
2024/01/29 09:24:57;;;;;;;0.47;0.47;;;10.20;86.40;;;;;;4932137;29;20050;-84
2024/01/29 09:27:23;;;;;;;0.30;0.30;;;10.40;85.60;;;;;;4935128;29;20506;-83
2024/01/29 09:29:49;;;;;;;0.50;0.50;;;10.70;84.40;;;;;;4938672;29;20042;-84
2024/01/29 09:32:15;;;;;;;0.80;0.80;;;11.00;84.30;;;;;;4951235;28;20039;-84
2024/01/29 09:34:41;;;;;;;0.60;0.60;;;11.20;83.20;;;;;;4929024;29;20043;-85
2024/01/29 09:37:06;;;;;;;0.43;0.43;;;11.10;82.50;;;;;;4927305;29;20034;-84
2024/01/29 09:39:32;;;;;;;0.30;0.30;;;11.20;83.00;;;;;;4935972;29;20024;-82
2024/01/29 09:42:05;;;;;;;0.40;0.40;;;10.90;83.20;;;;;;4927632;29;20043;-82
2024/01/29 09:44:38;;;;;;;1.25;1.20;;;11.00;83.30;;;;;;4946406;29;20016;-82
2024/01/29 09:47:07;;;;;;;;;;;11.00;83.20;;;;;;4936763;29;20128;-82
2024/01/29 09:49:39;;;;;;;1.60;1.50;;;11.40;82.60;;;;;;4936966;29;19907;-83
2024/01/29 09:52:10;;;;;;;1.58;1.48;;;11.70;81.20;;;;;;4936759;29;20055;-83
2024/01/29 09:54:37;;;;;;;1.70;1.60;;;11.80;81.40;;;;;;4949954;29;20062;-83
2024/01/29 09:57:04;;;;;;;0.90;0.90;;;11.90;80.90;;;;;;4937216;29;20020;-83
2024/01/29 09:59:30;;;;;;;0.40;0.40;;;11.90;80.80;;;;;;4938576;29;20099;-83
2024/01/29 10:01:58;;;;;;;0.30;0.30;;;11.60;81.20;;;;;;4937284;29;20028;-83
2024/01/29 10:04:24;;;;;;;0.10;0.10;;;11.40;82.00;;;;;;4937894;29;20028;-83
2024/01/29 10:06:50;;;;;;;0.20;0.20;;;11.20;82.30;;;;;;4939017;29;20035;-83
2024/01/29 10:09:15;;;;;;;0.10;0.10;;;11.20;82.70;;;;;;4969744;28;20054;-83
2024/01/29 10:11:43;;;;;;;0.10;0.10;;;11.10;82.80;;;;;;4939498;29;20043;-83
2024/01/29 10:14:08;;;;;;;0.10;0.10;;;11.10;83.20;;;;;;4940137;29;20036;-83
2024/01/29 10:16:34;;;;;;;0.10;0.10;;;11.10;83.20;;;;;;4942573;29;20388;-83
2024/01/29 10:19:01;;;;;;;0.10;0.10;;;11.10;83.40;;;;;;4936806;29;20611;-83
2024/01/29 10:21:32;;;;;;;0.10;0.10;;;11.10;83.40;;;;;;4952557;29;20150;-83
2024/01/29 10:23:58;;;;;;;0.20;0.20;;;11.20;83.60;;;;;;4933433;29;20444;-84
2024/01/29 10:26:25;;;;;;;0.10;0.10;;;11.30;83.50;;;;;;4936307;29;20853;-85
2024/01/29 10:29:03;;;;;;;0.10;0.10;;;11.30;83.20;;;;;;4947712;28;20182;-85
2024/01/29 10:31:30;;;;;;;0.10;0.10;;;11.40;83.30;;;;;;4928044;29;20464;-86
2024/01/29 10:33:56;;;;;;;0.20;0.20;;;11.50;83.20;;;;;;4970304;28;20050;-85
2024/01/29 10:36:22;;;;;;;0.10;0.10;;;11.50;82.90;;;;;;4935446;29;20032;-85
2024/01/29 10:38:48;;;;;;;0.20;0.20;;;11.60;83.40;;;;;;4934454;29;20054;-86
2024/01/29 10:41:17;;;;;;;0.10;0.10;;;11.60;83.00;;;;;;4934838;29;20125;-85
2024/01/29 10:43:48;;;;;;;0.10;0.10;;;11.70;83.20;;;;;;4930563;29;20031;-86
2024/01/29 10:46:19;;;;;;;0.20;0.20;;;11.80;83.00;;;;;;4953842;29;20051;-86
2024/01/29 10:48:45;;;;;;;0.20;0.20;;;11.80;83.30;;;;;;4939434;29;20102;-86
2024/01/29 10:51:13;;;;;;;0.10;0.10;;;11.90;83.40;;;;;;4955804;29;20056;-87
2024/01/29 10:53:40;;;;;;;0.10;0.10;;;12.00;83.20;;;;;;4941731;29;20055;-86
2024/01/29 10:56:07;;;;;;;0.10;0.10;;;12.00;82.90;;;;;;4940709;29;20055;-86
2024/01/29 10:58:33;;;;;;;0.10;0.10;;;11.90;83.00;;;;;;4956293;29;20054;-87
2024/01/29 11:01:00;;;;;;;0.10;0.10;;;12.00;83.30;;;;;;4941452;29;20059;-86
2024/01/29 11:03:26;;;;;;;0.10;0.10;;;11.90;83.40;;;;;;4955295;29;20075;-86
2024/01/29 11:06:19;;;;;;;0.10;0.10;;;11.90;83.60;;;;;;4956365;29;20019;-86
2024/01/29 11:08:50;;;;;;;0.10;0.10;;;12.00;83.70;;;;;;4934464;29;20099;-85
2024/01/29 11:11:17;;;;;;;0.17;0.17;;;12.20;83.60;;;;;;4954826;28;20123;-85
2024/01/29 11:13:43;;;;;;;0.10;0.10;;;12.20;83.70;;;;;;4951481;29;20412;-86
2024/01/29 11:16:09;;;;;;;0.10;0.10;;;12.20;83.60;;;;;;4924259;29;20072;-86
2024/01/29 11:18:36;;;;;;;0.10;0.10;;;12.20;83.70;;;;;;4939450;29;20503;-87
2024/01/29 11:21:02;;;;;;;0.10;0.10;;;12.30;83.60;;;;;;4955997;29;20030;-86
2024/01/29 11:23:28;;;;;;;0.10;0.10;;;12.20;83.40;;;;;;4954991;29;20079;-87
2024/01/29 11:26:00;;;;;;;0.10;0.10;;;12.20;83.90;;;;;;4936707;29;20024;-88
2024/01/29 11:28:26;;;;;;;0.10;0.10;;;12.30;83.80;;;;;;4954189;28;21561;-86
2024/01/29 11:30:53;;;;;;;0.10;0.10;;;12.30;83.90;;;;;;4957669;28;20055;-87
2024/01/29 11:40:41;;;;;;;0.10;0.10;;;12.30;84.00;;;;;;4862451;29;20033;-86
2024/01/29 11:51:34;;;;;;;;;;;;;;;;;;;;;
2024/01/29 12:29:54;;;;;;;0.10;0.10;;;13.80;80.20;;;;;;6173495;23;20020;-85
2024/01/29 12:32:20;;;;;;;0.10;0.10;;;13.80;80.30;;;;;;6170702;23;20005;-85
2024/01/29 12:35:22;;;;;;;0.10;0.10;;;13.80;80.30;;;;;;6170407;23;20054;-86
2024/01/29 12:43:51;;;;;;;0.10;0.10;;;14.00;80.10;;;;;;6170553;23;20001;-87
2024/01/29 12:46:27;;;;;;;;;;;;;;;;;;;;;
2024/01/29 12:49:14;;;;;;;;;;;;;;;;;;;;;
2024/01/29 12:51:41;;;;;;;0.10;0.10;;;14.00;80.30;;;;;;6195981;23;20088;-87
2024/01/29 12:58:07;;;;;;;;;;;;;;;;;;;;;
2024/01/29 13:00:54;;;;;;;;;;;;;;;;;;;;;
2024/01/29 13:04:19;;;;;;;;;;;;;;;;;;;;;
2024/01/29 13:36:37;;;;;;;0.10;0.10;;;14.30;80.10;;;;;;5652554;25;20041;-88
2024/01/29 13:46:52;;;;;;;0.10;0.10;;;14.50;79.80;;;;;;5635955;25;20097;-89
2024/01/29 13:49:43;;;;;;;0.10;0.10;;;14.50;79.70;;;;;;5664507;25;20068;-89
2024/01/29 13:53:01;;;;;;;0.10;0.10;;;14.40;79.90;;;;;;5691594;25;20028;-88
2024/01/29 13:56:55;;;;;;;;;;;;;;;;;;;;;
2024/01/29 13:59:24;;;;;;;;;;;;;;;;;;;;;
2024/01/29 14:06:10;;;;;;;;;;;;;;;;;;;;;
2024/01/29 14:12:45;;;;;;;0.10;0.10;;;14.30;80.40;;;;;;5918954;24;20008;-88
2024/01/29 14:22:54;;;;;;;;;;;;;;;;;;;;;
2024/01/29 14:39:54;;;;;;;;;;;;;;;;;;;;;
2024/01/29 14:42:20;;;;;;;0.10;0.10;;;14.30;80.50;;;;;;5955755;23;19955;-82
2024/01/29 14:44:46;;;;;;;0.10;0.10;;;14.30;80.60;;;;;;6010598;23;20496;-82
2024/01/29 14:47:13;;;;;;;0.10;0.10;;;14.30;80.70;;;;;;6053125;23;20002;-81
2024/01/29 14:49:39;;;;;;;0.10;0.10;;;14.40;80.90;;;;;;6131551;23;20346;-81
2024/01/29 14:52:04;;;;;;;0.10;0.10;;;14.40;80.70;;;;;;6131508;23;20013;-81
2024/01/29 14:54:30;;;;;;;0.10;0.10;;;14.40;80.80;;;;;;6156412;23;20001;-81
2024/01/29 14:56:56;;;;;;;0.10;0.10;;;14.40;80.40;;;;;;6157206;23;20005;-81
2024/01/29 14:59:21;;;;;;;0.10;0.10;;;14.60;80.20;;;;;;6131613;23;20077;-81
2024/01/29 15:01:47;;;;;;;0.10;0.10;;;14.60;79.70;;;;;;6157298;23;20004;-82
2024/01/29 15:04:14;;;;;;;0.10;0.10;;;14.70;79.40;;;;;;6131663;23;20005;-82
2024/01/29 15:06:40;;;;;;;0.10;0.10;;;14.80;79.20;;;;;;6130880;23;20084;-81
2024/01/29 15:09:06;;;;;;;0.10;0.10;;;14.80;79.20;;;;;;6119370;23;20425;-82
2024/01/29 15:11:32;;;;;;;0.10;0.10;;;14.90;78.90;;;;;;6131421;23;20089;-81
2024/01/29 15:13:57;;;;;;;0.10;0.10;;;14.90;78.60;;;;;;6131999;23;20005;-81
2024/01/29 15:16:23;;;;;;;0.10;0.10;;;14.90;78.10;;;;;;6131098;23;20009;-82
2024/01/29 15:18:51;;;;;;;0.10;0.10;;;14.80;78.30;;;;;;6132471;23;20011;-82
2024/01/29 15:21:16;;;;;;;0.10;0.10;;;14.70;78.30;;;;;;6131424;23;20017;-81
2024/01/29 15:23:42;;;;;;;0.10;0.10;;;14.70;78.60;;;;;;6158500;23;20002;-81
2024/01/29 15:26:08;;;;;;;0.10;0.10;;;14.60;78.70;;;;;;6157335;23;19998;-81
2024/01/29 15:28:34;;;;;;;0.10;0.10;;;14.60;78.60;;;;;;6184081;23;20009;-81
2024/01/29 15:30:59;;;;;;;0.08;0.08;;;14.60;78.80;;;;;;6160867;23;20024;-82
2024/01/29 15:33:42;;;;;;;0.10;0.10;;;14.50;79.00;;;;;;6160162;23;20012;-83
2024/01/29 15:43:48;;;;;;;0.10;0.10;;;14.30;79.80;;;;;;5938390;24;20111;-87
2024/01/29 15:46:14;;;;;;;0.10;0.10;;;14.20;80.20;;;;;;6043109;23;20012;-84
2024/01/29 15:48:40;;;;;;;0.10;0.10;;;14.20;80.40;;;;;;6043049;23;20033;-84
2024/01/29 15:51:05;;;;;;;0.08;0.08;;;14.10;80.60;;;;;;6139545;23;20031;-84
2024/01/29 15:53:31;;;;;;;0.10;0.10;;;14.10;80.60;;;;;;6186538;23;20446;-83
2024/01/29 15:55:59;;;;;;;0.00;0.00;;;14.10;80.80;;;;;;6161877;23;20001;-84
2024/01/29 15:58:25;;;;;;;0.00;0.00;;;14.10;80.90;;;;;;6187786;23;20008;-84
2024/01/29 16:00:50;;;;;;;0.10;0.10;;;14.10;81.00;;;;;;6187575;23;20033;-84
2024/01/29 16:03:16;;;;;;;0.00;0.00;;;14.10;81.00;;;;;;6186738;23;20005;-84
2024/01/29 16:05:42;;;;;;;0.10;0.10;;;14.10;81.10;;;;;;6161718;23;20060;-84
2024/01/29 16:08:09;;;;;;;0.10;0.10;;;14.00;81.40;;;;;;6186897;23;20004;-83
2024/01/29 16:10:38;;;;;;;0.10;0.10;;;14.00;81.50;;;;;;6158583;23;20013;-84
2024/01/29 16:13:04;;;;;;;0.10;0.10;;;14.00;81.60;;;;;;6157840;23;20377;-84
2024/01/29 16:15:30;;;;;;;0.10;0.10;;;14.00;81.70;;;;;;6186572;23;20005;-84
2024/01/29 16:18:46;;;;;;;0.00;0.00;;;13.90;81.90;;;;;;6159886;23;20016;-85
2024/01/29 16:21:21;;;;;;;0.10;0.10;;;13.80;82.00;;;;;;6099122;23;20012;-83
2024/01/29 16:24:37;;;;;;;;;;;;;;;;;;;;;
2024/01/29 16:27:12;;;;;;;0.00;0.00;;;13.70;82.30;;;;;;6187928;23;20108;-84
2024/01/29 16:29:45;;;;;;;0.10;0.10;;;13.70;82.40;;;;;;6188425;23;20005;-85
2024/01/29 16:32:31;;;;;;;;;;;13.60;82.60;;;;;;6162981;23;20005;-84
2024/01/29 16:35:23;;;;;;;0.10;0.10;;;13.50;82.60;;;;;;6187483;23;19904;-85
2024/01/29 16:38:26;;;;;;;0.10;0.10;;;13.50;82.60;;;;;;6162154;23;20005;-86
2024/01/29 16:41:17;;;;;;;0.03;0.03;;;13.50;82.80;;;;;;6161339;23;20012;-86
2024/01/29 16:43:43;;;;;;;0.10;0.10;;;13.40;83.10;;;;;;6188380;23;20004;-86
2024/01/29 16:46:08;;;;;;;0.10;0.10;;;13.40;83.10;;;;;;6189569;23;20001;-83
2024/01/29 16:48:35;;;;;;;0.10;0.10;;;13.30;83.30;;;;;;6190151;23;20005;-85
2024/01/29 16:51:00;;;;;;;0.10;0.10;;;13.30;83.30;;;;;;6190178;23;20052;-85
2024/01/29 16:53:26;;;;;;;0.10;0.10;;;13.20;83.50;;;;;;6189933;23;20001;-87
2024/01/29 16:55:51;;;;;;;0.00;0.00;;;13.20;83.60;;;;;;6163548;23;20009;-89
2024/01/29 16:58:17;;;;;;;0.00;0.00;;;13.20;83.70;;;;;;6189743;23;20001;-89
2024/01/29 17:00:43;;;;;;;0.10;0.10;;;13.10;83.70;;;;;;6190528;23;20005;-89
2024/01/29 17:03:09;;;;;;;0.10;0.10;;;13.00;83.80;;;;;;6190045;23;20020;-88
2024/01/29 17:05:34;;;;;;;0.00;0.00;;;13.00;83.70;;;;;;6164388;23;20009;-89
2024/01/29 17:08:00;;;;;;;0.00;0.00;;;13.00;83.70;;;;;;6188957;23;20081;-88
2024/01/29 17:10:27;;;;;;;0.10;0.10;;;13.00;83.70;;;;;;6163812;23;20005;-89
2024/01/29 17:12:53;;;;;;;0.10;0.10;;;13.00;83.80;;;;;;6189070;23;20008;-89
2024/01/29 17:15:18;;;;;;;0.10;0.10;;;13.00;83.70;;;;;;6164170;23;20091;-89
2024/01/29 17:17:44;;;;;;;0.10;0.10;;;13.00;83.80;;;;;;6154531;23;20091;-89
2024/01/29 17:20:10;;;;;;;0.10;0.10;;;12.90;83.90;;;;;;6164246;23;20061;-89
2024/01/29 17:22:36;;;;;;;0.10;0.10;;;13.00;83.80;;;;;;6189709;23;20025;-89
2024/01/29 17:25:02;;;;;;;0.00;0.00;;;12.90;83.80;;;;;;6189914;23;19997;-89
2024/01/29 17:27:30;;;;;;;0.10;0.10;;;12.90;83.90;;;;;;6157335;23;20017;-89
2024/01/29 17:29:56;;;;;;;0.10;0.10;;;12.90;84.00;;;;;;6158705;23;20044;-80
2024/01/29 17:32:22;;;;;;;0.10;0.10;;;12.90;84.00;;;;;;6159343;23;20002;-86
2024/01/29 17:34:47;;;;;;;0.10;0.10;;;12.80;84.00;;;;;;6159866;23;20029;-86
2024/01/29 17:37:14;;;;;;;0.03;0.03;;;12.80;84.10;;;;;;6157879;23;20319;-85
2024/01/29 17:39:39;;;;;;;0.10;0.10;;;12.80;84.10;;;;;;6157801;23;20040;-85
2024/01/29 17:42:06;;;;;;;0.10;0.10;;;12.80;84.40;;;;;;6156713;23;20450;-85
2024/01/29 17:44:32;;;;;;;0.03;0.03;;;12.70;84.40;;;;;;6156492;23;20447;-85
2024/01/29 17:46:57;;;;;;;0.10;0.10;;;12.70;84.40;;;;;;6159818;23;20005;-85
2024/01/29 17:49:23;;;;;;;0.10;0.10;;;12.70;84.40;;;;;;6159115;23;20005;-85
2024/01/29 17:51:49;;;;;;;0.10;0.10;;;12.70;84.40;;;;;;6159697;23;20012;-85
2024/01/29 17:54:18;;;;;;;0.10;0.10;;;12.70;84.50;;;;;;6159244;23;20013;-86
2024/01/29 17:56:44;;;;;;;0.10;0.10;;;12.70;84.50;;;;;;6158589;23;20008;-86
2024/01/29 17:59:11;;;;;;;0.10;0.10;;;12.70;84.50;;;;;;6157073;23;20005;-76
2024/01/29 18:01:37;;;;;;;0.10;0.10;;;12.70;84.50;;;;;;6160018;23;20006;-75
2024/01/29 18:04:03;;;;;;;0.10;0.10;;;12.70;84.50;;;;;;6158254;23;20002;-74
2024/01/29 18:06:28;;;;;;;0.10;0.10;;;12.70;84.60;;;;;;6158308;23;20009;-84
2024/01/29 18:08:54;;;;;;;0.10;0.10;;;12.60;84.70;;;;;;6159315;23;20441;-79
2024/01/29 18:11:20;;;;;;;0.10;0.10;;;12.60;84.70;;;;;;6160358;23;20029;-80
2024/01/29 18:13:46;;;;;;;0.08;0.08;;;12.60;84.80;;;;;;6157690;23;20016;-83
2024/01/29 18:16:12;;;;;;;0.10;0.10;;;12.60;84.80;;;;;;6160496;23;20032;-79
2024/01/29 18:18:38;;;;;;;0.10;0.10;;;12.60;84.80;;;;;;6163031;23;19998;-76
2024/01/29 18:21:04;;;;;;;0.05;0.05;;;12.60;84.80;;;;;;6161010;23;20337;-78
2024/01/29 18:23:29;;;;;;;0.00;0.00;;;12.60;84.80;;;;;;6164156;23;20008;-79
2024/01/29 18:25:55;;;;;;;0.10;0.10;;;12.60;84.90;;;;;;6158074;23;20001;-78
2024/01/29 18:28:21;;;;;;;0.10;0.10;;;12.60;84.90;;;;;;6181122;23;20409;-78
2024/01/29 18:30:46;;;;;;;0.00;0.00;;;12.60;84.90;;;;;;6189849;23;20040;-78
2024/01/29 18:33:12;;;;;;;0.10;0.10;;;12.50;85.00;;;;;;6189798;23;20001;-76
2024/01/29 18:35:38;;;;;;;0.10;0.10;;;12.50;85.00;;;;;;6189913;23;20009;-77
2024/01/29 18:38:03;;;;;;;0.00;0.00;;;12.50;85.10;;;;;;6187965;23;20012;-77
2024/01/29 18:40:33;;;;;;;0.10;0.10;;;12.40;85.10;;;;;;6161890;23;20009;-78
2024/01/29 18:42:59;;;;;;;0.08;0.08;;;12.40;85.30;;;;;;6189476;23;20001;-77
2024/01/29 18:45:25;;;;;;;0.10;0.10;;;12.40;85.40;;;;;;6189245;23;19997;-79
2024/01/29 18:47:51;;;;;;;0.10;0.10;;;12.40;85.30;;;;;;6189516;23;20008;-77
2024/01/29 18:50:16;;;;;;;0.10;0.10;;;12.30;85.40;;;;;;6189821;23;20009;-83
2024/01/29 18:52:42;;;;;;;0.00;0.00;;;12.30;85.50;;;;;;6163476;23;20005;-83
2024/01/29 18:55:08;;;;;;;0.10;0.10;;;12.30;85.60;;;;;;6189210;23;20009;-77
2024/01/29 18:57:33;;;;;;;0.10;0.10;;;12.30;85.60;;;;;;6162842;23;20012;-76
2024/01/29 18:59:59;;;;;;;0.10;0.10;;;12.30;85.70;;;;;;6189303;23;20434;-80
2024/01/29 19:02:25;;;;;;;0.10;0.10;;;12.30;85.70;;;;;;6162865;23;20005;-74
2024/01/29 19:04:51;;;;;;;0.00;0.00;;;12.30;85.80;;;;;;6189618;23;20012;-80
2024/01/29 19:07:18;;;;;;;0.00;0.00;;;12.20;85.80;;;;;;6189732;23;20341;-77
2024/01/29 19:09:44;;;;;;;0.10;0.10;;;12.30;85.80;;;;;;6188427;23;20007;-78
2024/01/29 19:12:09;;;;;;;0.00;0.00;;;12.30;85.90;;;;;;6189194;23;20005;-77
2024/01/29 19:14:35;;;;;;;0.10;0.10;;;12.20;85.90;;;;;;6188472;23;20072;-79
2024/01/29 19:17:00;;;;;;;0.10;0.10;;;12.20;85.90;;;;;;6188962;23;20001;-80
2024/01/29 19:19:26;;;;;;;0.10;0.10;;;12.20;85.90;;;;;;6188594;23;20000;-75
2024/01/29 19:21:52;;;;;;;0.10;0.10;;;12.20;86.00;;;;;;6162748;23;20082;-76
2024/01/29 19:24:18;;;;;;;0.05;0.05;;;12.20;85.90;;;;;;6162456;23;20009;-77
2024/01/29 19:26:43;;;;;;;0.00;0.00;;;12.20;85.90;;;;;;6188112;23;20334;-77
2024/01/29 19:29:09;;;;;;;0.00;0.00;;;12.20;85.90;;;;;;6188601;23;20011;-77
2024/01/29 19:31:35;;;;;;;0.10;0.10;;;12.20;85.90;;;;;;6188804;23;20012;-76
2024/01/29 19:34:00;;;;;;;0.00;0.00;;;12.20;85.90;;;;;;6189309;23;20004;-76
2024/01/29 19:36:26;;;;;;;0.10;0.10;;;12.20;85.90;;;;;;6188432;23;20005;-76
2024/01/29 19:38:52;;;;;;;0.00;0.00;;;12.20;85.90;;;;;;6188919;23;20005;-76
2024/01/29 19:41:18;;;;;;;0.10;0.10;;;12.20;85.90;;;;;;6162975;23;20012;-77
2024/01/29 19:43:44;;;;;;;0.10;0.10;;;12.30;85.90;;;;;;6189109;23;20008;-76
2024/01/29 19:46:09;;;;;;;0.00;0.00;;;12.20;85.90;;;;;;6162326;23;20009;-76
2024/01/29 19:48:39;;;;;;;0.10;0.10;;;12.20;85.90;;;;;;6188893;23;20000;-76
2024/01/29 19:51:05;;;;;;;0.10;0.10;;;12.20;85.90;;;;;;6191339;23;20007;-78
2024/01/29 19:53:31;;;;;;;0.10;0.10;;;12.20;85.90;;;;;;6189081;23;20064;-78
2024/01/29 19:55:57;;;;;;;0.10;0.10;;;12.20;85.90;;;;;;6165275;23;20009;-79
2024/01/29 19:58:22;;;;;;;0.10;0.10;;;12.20;85.90;;;;;;6187938;23;20334;-77
2024/01/29 20:00:48;;;;;;;0.10;0.10;;;12.20;85.90;;;;;;6186981;23;20743;-80
2024/01/29 20:03:13;;;;;;;0.10;0.10;;;12.20;85.90;;;;;;6187767;23;20023;-76
2024/01/29 20:05:39;;;;;;;0.00;0.00;;;12.20;86.00;;;;;;6161524;23;20079;-79
2024/01/29 20:08:05;;;;;;;0.00;0.00;;;12.20;86.00;;;;;;6162882;23;20005;-78
2024/01/29 20:10:30;;;;;;;0.10;0.10;;;12.20;86.00;;;;;;6187937;23;20012;-81
2024/01/29 20:12:56;;;;;;;0.10;0.10;;;12.10;86.10;;;;;;6187890;23;20010;-79
2024/01/29 20:15:22;;;;;;;0.10;0.10;;;12.10;86.10;;;;;;6162650;23;20378;-90
2024/01/29 20:17:47;;;;;;;0.10;0.10;;;12.10;86.20;;;;;;6162177;23;20085;-82
2024/01/29 20:20:13;;;;;;;0.10;0.10;;;12.20;86.20;;;;;;6187593;23;20424;-80
2024/01/29 20:22:39;;;;;;;0.10;0.10;;;12.10;86.20;;;;;;6187430;23;19997;-78
2024/01/29 20:25:05;;;;;;;0.00;0.00;;;12.10;86.20;;;;;;6186530;23;20001;-78
2024/01/29 20:27:30;;;;;;;0.10;0.10;;;12.10;86.30;;;;;;6189462;23;20774;-87
2024/01/29 20:29:56;;;;;;;0.00;0.00;;;12.00;86.30;;;;;;6190071;23;20023;-78
2024/01/29 20:32:24;;;;;;;0.00;0.00;;;12.00;86.40;;;;;;6190439;23;20100;-78
2024/01/29 20:34:50;;;;;;;0.10;0.10;;;12.00;86.30;;;;;;6190475;23;20029;-78
2024/01/29 20:37:16;;;;;;;0.10;0.10;;;12.00;86.30;;;;;;6188526;23;20001;-78
2024/01/29 20:39:42;;;;;;;0.05;0.05;;;12.00;86.30;;;;;;6158335;23;20460;-78
2024/01/29 20:42:09;;;;;;;0.10;0.10;;;12.00;86.30;;;;;;6163889;23;20005;-78
2024/01/29 20:44:34;;;;;;;0.10;0.10;;;11.90;86.40;;;;;;6190097;23;20044;-78
2024/01/29 20:47:00;;;;;;;0.00;0.00;;;11.90;86.50;;;;;;6189349;23;20005;-78
2024/01/29 20:49:26;;;;;;;0.10;0.10;;;12.00;86.40;;;;;;6189845;23;20373;-78
2024/01/29 20:51:52;;;;;;;0.10;0.10;;;11.90;86.40;;;;;;6189774;23;20005;-78
2024/01/29 20:54:17;;;;;;;0.10;0.10;;;11.90;86.40;;;;;;6162545;23;20084;-78